< Typhoon 197709 1977 Season Typhoon 197711 >
Typhoon 197710 (CARLA)
General InformationTrack Information on Google MapsDetailed Wind Information || Disaster Info.ResourceGoogle EarthGE AnimationAtom FeedGeoJSON
Detalied Best Track (Time Zone = UTC)
Year Month Day Hour Lat. Long. Pressure (hPa) Wind (kt) Class Image Chart
1977 8 31 00 13.7 129.1 1004 0 2 -- Chart
1977 8 31 06 14.0 128.4 1004 0 2 -- Chart
1977 8 31 12 14.5 127.6 1004 0 2 -- Chart
1977 8 31 18 15.0 126.9 1004 0 2 -- Chart
1977 9 1 00 15.5 126.0 1002 0 2 -- Chart
1977 9 1 06 15.8 125.0 1000 0 2 -- Chart
1977 9 1 12 16.3 123.7 1000 0 2 -- Chart
1977 9 1 18 16.6 122.0 1000 0 2 -- Chart
1977 9 2 00 17.0 120.0 1000 0 2 -- Chart
1977 9 2 06 17.5 118.5 998 0 2 -- Chart
1977 9 2 12 18.0 117.0 998 0 2 -- Chart
1977 9 2 18 17.7 116.0 996 0 2 -- Chart
1977 9 3 00 17.6 114.9 992 0 2 -- Chart
1977 9 3 06 18.0 113.8 992 0 2 -- Chart
1977 9 3 12 18.0 112.7 990 35 3 -- Chart
1977 9 3 18 18.0 111.5 990 35 3 -- Chart
1977 9 4 00 18.0 110.5 990 35 3 -- Chart
1977 9 4 06 18.0 109.5 990 35 3 -- Chart
1977 9 4 12 18.0 108.5 990 35 3 -- Chart
1977 9 4 18 18.0 107.4 990 35 3 -- Chart
1977 9 5 00 18.0 106.3 992 0 2 -- Chart
1977 9 5 06 18.0 104.0 996 0 2 -- Chart
1977 9 5 12 18.0 103.0 998 0 2 -- Chart
1977 9 5 18 17.0 102.0 998 0 2 -- Chart
1977 9 6 00 17.0 100.0 1000 0 2 -- Chart
1977 9 6 06 17.5 99.5 1000 0 2 -- Chart
Japan Meteorological Agency Best Track Data | Correction Date : 1992-10-21
< Typhoon 197709 1977 Season Typhoon 197711 >

Help